Ct Longford — 9HYM9 — position and weather

sailwx.info

Track history (hours):
 
Tides and Currents Weather Stations Pressure Air Temp Water Temp Dewpoint Dewpoint Depression Visibility Wind Speed Wind Dir Waves Ship Positions

Ct Longford

Last reported at 2016-May-29 08:32 UTC. Time now 2016-May-30 10:43 UTC.
Position N 37°29' E 024°05'.

Length 117 m; draft 5.3 m.

Type: Ship. MMSI: 249706000.

Date/timePositionNaut miles runAvg speedWind from/ knotsBaromVisibWave heightAir tempDewpointWater temp
2016-May-29 08:32N 37°29' E 024°05'1010.0
2016-May-29 07:33N 37°21' E 023°58'1010.1
2016-May-29 06:33N 37°12' E 023°52'1010.1
2016-May-29 05:33N 37°04' E 023°45'1010.2
2016-May-29 04:33N 36°55' E 023°38'1010.4
2016-May-29 03:33N 36°46' E 023°31'1010.3
2016-May-29 02:33N 36°37' E 023°25'22010.0
2016-May-28 04:33N 36°07' E 018°54'1110.1
2016-May-28 03:29N 36°06' E 018°41'2010.4
2016-May-28 01:32N 36°05' E 018°16'1110.6
2016-May-28 00:31N 36°04' E 018°03'1010.9
2016-May-27 23:33N 36°03' E 017°50'1110.8
2016-May-27 22:33N 36°03' E 017°37'1110.5
2016-May-27 21:32N 36°02' E 017°24'3010.0
2016-May-27 18:33N 35°60' E 016°47'1010.1
2016-May-27 17:33N 35°59' E 016°34'1010.1
2016-May-27 16:33N 35°58' E 016°22'10 9.9
2016-May-27 15:33N 35°58' E 016°10'10 9.8
2016-May-27 14:33N 35°57' E 015°58'10 9.8
2016-May-27 13:33N 35°56' E 015°45'10 9.9
2016-May-27 12:33N 35°55' E 015°33'6 6.4
2016-May-27 11:33N 35°55' E 015°25'7 6.6
2016-May-27 10:33N 35°54' E 015°17'8 7.7
2016-May-27 09:33N 35°54' E 015°08'7 7.5
2016-May-27 08:33N 35°53' E 014°59'7 7.0
2016-May-27 07:33N 35°53' E 014°50'4 3.5
2016-May-27 06:32N 35°53' E 014°46'0 0.0
2016-May-27 05:32N 35°53' E 014°46'0 0.0
2016-May-27 04:32N 35°53' E 014°46'0 0.0
2016-May-27 03:32N 35°53' E 014°46'0 0.0
2016-May-27 02:32N 35°53' E 014°46'0 0.0
2016-May-27 01:32N 35°53' E 014°46'0 0.0
2016-May-27 00:32N 35°53' E 014°46'0 0.0
2016-May-26 23:32N 35°53' E 014°46'0 0.0
2016-May-26 22:32N 35°53' E 014°46'0 0.0
2016-May-26 21:32N 35°53' E 014°46'0 0.0
2016-May-26 20:32N 35°53' E 014°46'0 0.0
2016-May-26 19:32N 35°53' E 014°46'0 0.0
2016-May-26 18:32N 35°53' E 014°46'0 0.0
2016-May-26 17:32N 35°53' E 014°46'0 0.1
2016-May-26 16:32N 35°53' E 014°46'4 3.8
2016-May-26 15:34N 35°56' E 014°49'0 0.0
2016-May-26 14:32N 35°56' E 014°49'0 0.0
2016-May-26 13:34N 35°56' E 014°49'0 0.0
2016-May-26 12:34N 35°56' E 014°49'0 0.0
2016-May-26 11:34N 35°56' E 014°49'0 0.1
2016-May-26 10:34N 35°56' E 014°49'5 5.5
2016-May-26 09:34N 35°57' E 014°43'1010.0
2016-May-26 08:33N 36°03' E 014°32'1010.5
2016-May-26 07:33N 36°07' E 014°20'1010.1
2016-May-26 06:34N 36°12' E 014°09'10 9.9
2016-May-26 05:33N 36°16' E 013°58'10 9.9
2016-May-26 04:34N 36°21' E 013°47'1010.1
2016-May-26 03:34N 36°25' E 013°36'1010.1
2016-May-26 02:33N 36°29' E 013°25'1010.4
2016-May-26 01:34N 36°34' E 013°13'1110.9
2016-May-26 00:34N 36°38' E 013°01'1111.2
2016-May-25 23:33N 36°44' E 012°48'1110.8
2016-May-25 22:33N 36°49' E 012°36'1110.7
2016-May-25 21:34N 36°53' E 012°24'1110.7
2016-May-25 20:33N 36°58' E 012°12'1110.7
2016-May-25 19:34N 37°03' E 012°00'1010.0
2016-May-25 18:34N 37°07' E 011°49'10 9.8
2016-May-25 17:34N 37°12' E 011°38'10 9.6
2016-May-25 16:33N 37°16' E 011°27'10 9.7
2016-May-25 15:30N 37°20' E 011°16'2010.0
2016-May-25 13:32N 37°26' E 010°52'10 9.9
2016-May-25 12:33N 37°29' E 010°40'10 9.6
2016-May-25 11:33N 37°31' E 010°29'1010.0
2016-May-25 10:33N 37°33' E 010°16'1310.7
2016-May-25 09:20N 37°34' E 009°60'910.9
2016-May-25 08:32N 37°34' E 009°49'2310.1
2016-May-25 06:17N 37°36' E 009°20'7 9.9
2016-May-25 05:33N 37°36' E 009°11'10 9.9
2016-May-25 04:33N 37°37' E 008°59'1010.0
2016-May-25 03:33N 37°36' E 008°46'13 9.9
2016-May-25 02:14N 37°34' E 008°30'7 9.9
2016-May-25 01:34N 37°33' E 008°21'10 9.8
2016-May-25 00:32N 37°32' E 008°09'1110.0
2016-May-24 23:26N 37°31' E 007°55'205 9.6
2016-May-24 02:05N 37°08' E 003°39'43110.1
2016-May-22 07:31N 36°01' W 005°11'1111.8
2016-May-22 06:33N 35°58' W 005°24'  
Track history (hours):
 
Tides and Currents Weather Stations Pressure Air Temp Water Temp Dewpoint Dewpoint Depression Visibility Wind Speed Wind Dir Waves Ship Positions

Ct Longford

Last reported at 2016-May-29 08:32 UTC. Time now 2016-May-30 10:43 UTC.
Position N 37°29' E 024°05'.

Length 117 m; draft 5.3 m.

Type: Ship. MMSI: 249706000.

Date/timePositionNaut miles runAvg speedWind from/ knotsBaromVisibWave heightAir tempDewpointWater temp
2016-May-29 08:32N 37°29' E 024°05'1010.0
2016-May-29 07:33N 37°21' E 023°58'1010.1
2016-May-29 06:33N 37°12' E 023°52'1010.1
2016-May-29 05:33N 37°04' E 023°45'1010.2
2016-May-29 04:33N 36°55' E 023°38'1010.4
2016-May-29 03:33N 36°46' E 023°31'1010.3
2016-May-29 02:33N 36°37' E 023°25'22010.0
2016-May-28 04:33N 36°07' E 018°54'1110.1
2016-May-28 03:29N 36°06' E 018°41'2010.4
2016-May-28 01:32N 36°05' E 018°16'1110.6
2016-May-28 00:31N 36°04' E 018°03'1010.9
2016-May-27 23:33N 36°03' E 017°50'1110.8
2016-May-27 22:33N 36°03' E 017°37'1110.5
2016-May-27 21:32N 36°02' E 017°24'3010.0
2016-May-27 18:33N 35°60' E 016°47'1010.1
2016-May-27 17:33N 35°59' E 016°34'1010.1
2016-May-27 16:33N 35°58' E 016°22'10 9.9
2016-May-27 15:33N 35°58' E 016°10'10 9.8
2016-May-27 14:33N 35°57' E 015°58'10 9.8
2016-May-27 13:33N 35°56' E 015°45'10 9.9
2016-May-27 12:33N 35°55' E 015°33'6 6.4
2016-May-27 11:33N 35°55' E 015°25'7 6.6
2016-May-27 10:33N 35°54' E 015°17'8 7.7
2016-May-27 09:33N 35°54' E 015°08'7 7.5
2016-May-27 08:33N 35°53' E 014°59'7 7.0
2016-May-27 07:33N 35°53' E 014°50'4 3.5
2016-May-27 06:32N 35°53' E 014°46'0 0.0
2016-May-27 05:32N 35°53' E 014°46'0 0.0
2016-May-27 04:32N 35°53' E 014°46'0 0.0
2016-May-27 03:32N 35°53' E 014°46'0 0.0
2016-May-27 02:32N 35°53' E 014°46'0 0.0
2016-May-27 01:32N 35°53' E 014°46'0 0.0
2016-May-27 00:32N 35°53' E 014°46'0 0.0
2016-May-26 23:32N 35°53' E 014°46'0 0.0
2016-May-26 22:32N 35°53' E 014°46'0 0.0
2016-May-26 21:32N 35°53' E 014°46'0 0.0
2016-May-26 20:32N 35°53' E 014°46'0 0.0
2016-May-26 19:32N 35°53' E 014°46'0 0.0
2016-May-26 18:32N 35°53' E 014°46'0 0.0
2016-May-26 17:32N 35°53' E 014°46'0 0.1
2016-May-26 16:32N 35°53' E 014°46'4 3.8
2016-May-26 15:34N 35°56' E 014°49'0 0.0
2016-May-26 14:32N 35°56' E 014°49'0 0.0
2016-May-26 13:34N 35°56' E 014°49'0 0.0
2016-May-26 12:34N 35°56' E 014°49'0 0.0
2016-May-26 11:34N 35°56' E 014°49'0 0.1
2016-May-26 10:34N 35°56' E 014°49'5 5.5
2016-May-26 09:34N 35°57' E 014°43'1010.0
2016-May-26 08:33N 36°03' E 014°32'1010.5
2016-May-26 07:33N 36°07' E 014°20'1010.1
2016-May-26 06:34N 36°12' E 014°09'10 9.9
2016-May-26 05:33N 36°16' E 013°58'10 9.9
2016-May-26 04:34N 36°21' E 013°47'1010.1
2016-May-26 03:34N 36°25' E 013°36'1010.1
2016-May-26 02:33N 36°29' E 013°25'1010.4
2016-May-26 01:34N 36°34' E 013°13'1110.9
2016-May-26 00:34N 36°38' E 013°01'1111.2
2016-May-25 23:33N 36°44' E 012°48'1110.8
2016-May-25 22:33N 36°49' E 012°36'1110.7
2016-May-25 21:34N 36°53' E 012°24'1110.7
2016-May-25 20:33N 36°58' E 012°12'1110.7
2016-May-25 19:34N 37°03' E 012°00'1010.0
2016-May-25 18:34N 37°07' E 011°49'10 9.8
2016-May-25 17:34N 37°12' E 011°38'10 9.6
2016-May-25 16:33N 37°16' E 011°27'10 9.7
2016-May-25 15:30N 37°20' E 011°16'2010.0
2016-May-25 13:32N 37°26' E 010°52'10 9.9
2016-May-25 12:33N 37°29' E 010°40'10 9.6
2016-May-25 11:33N 37°31' E 010°29'1010.0
2016-May-25 10:33N 37°33' E 010°16'1310.7
2016-May-25 09:20N 37°34' E 009°60'910.9
2016-May-25 08:32N 37°34' E 009°49'2310.1
2016-May-25 06:17N 37°36' E 009°20'7 9.9
2016-May-25 05:33N 37°36' E 009°11'10 9.9
2016-May-25 04:33N 37°37' E 008°59'1010.0
2016-May-25 03:33N 37°36' E 008°46'13 9.9
2016-May-25 02:14N 37°34' E 008°30'7 9.9
2016-May-25 01:34N 37°33' E 008°21'10 9.8
2016-May-25 00:32N 37°32' E 008°09'1110.0
2016-May-24 23:26N 37°31' E 007°55'205 9.6
2016-May-24 02:05N 37°08' E 003°39'43110.1
2016-May-22 07:31N 36°01' W 005°11'1111.8
2016-May-22 06:33N 35°58' W 005°24'  

Dump ship's entire track history